sensor_id;sensor_type;location;lat;lon;timestamp;temperature;humidity
22558;DHT22;11445;53.816;8.902;2022-10-12T00:02:26;8.90;99.90
22558;DHT22;11445;53.816;8.902;2022-10-12T00:04:52;8.90;99.90
22558;DHT22;11445;53.816;8.902;2022-10-12T00:07:19;8.90;99.90
22558;DHT22;11445;53.816;8.902;2022-10-12T00:09:46;8.90;99.90
22558;DHT22;11445;53.816;8.902;2022-10-12T00:12:13;8.80;99.90
22558;DHT22;11445;53.816;8.902;2022-10-12T00:14:40;8.80;99.90
22558;DHT22;11445;53.816;8.902;2022-10-12T00:17:07;8.80;99.90
22558;DHT22;11445;53.816;8.902;2022-10-12T00:19:36;8.80;99.90
22558;DHT22;11445;53.816;8.902;2022-10-12T00:22:03;8.80;99.90
22558;DHT22;11445;53.816;8.902;2022-10-12T00:24:30;8.80;99.90
22558;DHT22;11445;53.816;8.902;2022-10-12T00:26:57;8.80;99.90
22558;DHT22;11445;53.816;8.902;2022-10-12T00:29:24;8.80;99.90
22558;DHT22;11445;53.816;8.902;2022-10-12T00:31:51;8.70;99.90
22558;DHT22;11445;53.816;8.902;2022-10-12T00:34:18;8.70;99.90
22558;DHT22;11445;53.816;8.902;2022-10-12T00:36:47;8.70;99.90
22558;DHT22;11445;53.816;8.902;2022-10-12T00:39:14;8.70;99.90
22558;DHT22;11445;53.816;8.902;2022-10-12T00:41:42;8.70;99.90
22558;DHT22;11445;53.816;8.902;2022-10-12T00:44:36;8.70;99.90
22558;DHT22;11445;53.816;8.902;2022-10-12T00:47:09;8.70;99.90
22558;DHT22;11445;53.816;8.902;2022-10-12T00:49:39;8.70;99.90
22558;DHT22;11445;53.816;8.902;2022-10-12T00:52:10;8.70;99.90
22558;DHT22;11445;53.816;8.902;2022-10-12T00:54:40;8.70;99.90
22558;DHT22;11445;53.816;8.902;2022-10-12T00:57:10;8.60;99.90
22558;DHT22;11445;53.816;8.902;2022-10-12T00:59:42;8.60;99.90
22558;DHT22;11445;53.816;8.902;2022-10-12T01:02:11;8.60;99.90
22558;DHT22;11445;53.816;8.902;2022-10-12T01:04:38;8.60;99.90
22558;DHT22;11445;53.816;8.902;2022-10-12T01:07:06;8.60;99.90
22558;DHT22;11445;53.816;8.902;2022-10-12T01:09:34;8.50;99.90
22558;DHT22;11445;53.816;8.902;2022-10-12T01:12:03;8.50;99.90
22558;DHT22;11445;53.816;8.902;2022-10-12T01:14:31;8.50;99.90
22558;DHT22;11445;53.816;8.902;2022-10-12T01:17:03;8.50;99.90
22558;DHT22;11445;53.816;8.902;2022-10-12T01:20:12;8.50;99.90
22558;DHT22;11445;53.816;8.902;2022-10-12T01:22:53;8.50;99.90
22558;DHT22;11445;53.816;8.902;2022-10-12T01:25:31;8.50;99.90
22558;DHT22;11445;53.816;8.902;2022-10-12T01:28:08;8.50;99.90
22558;DHT22;11445;53.816;8.902;2022-10-12T01:30:42;8.50;99.90
22558;DHT22;11445;53.816;8.902;2022-10-12T01:33:22;8.50;99.90
22558;DHT22;11445;53.816;8.902;2022-10-12T01:35:54;8.50;99.90
22558;DHT22;11445;53.816;8.902;2022-10-12T01:38:35;8.50;99.90
22558;DHT22;11445;53.816;8.902;2022-10-12T01:41:07;8.50;99.90
22558;DHT22;11445;53.816;8.902;2022-10-12T01:43:37;8.40;99.90
22558;DHT22;11445;53.816;8.902;2022-10-12T01:48:53;8.40;99.90
22558;DHT22;11445;53.816;8.902;2022-10-12T01:51:30;8.40;99.90
22558;DHT22;11445;53.816;8.902;2022-10-12T01:54:06;8.40;99.90
22558;DHT22;11445;53.816;8.902;2022-10-12T01:56:41;8.40;99.90
22558;DHT22;11445;53.816;8.902;2022-10-12T01:59:17;8.40;99.90
22558;DHT22;11445;53.816;8.902;2022-10-12T02:01:51;8.40;99.90
22558;DHT22;11445;53.816;8.902;2022-10-12T02:04:24;8.40;99.90
22558;DHT22;11445;53.816;8.902;2022-10-12T02:06:57;8.40;99.90
22558;DHT22;11445;53.816;8.902;2022-10-12T02:09:27;8.40;99.90
22558;DHT22;11445;53.816;8.902;2022-10-12T02:11:58;8.30;99.90
22558;DHT22;11445;53.816;8.902;2022-10-12T02:14:31;8.30;99.90
22558;DHT22;11445;53.816;8.902;2022-10-12T02:17:04;8.30;99.90
22558;DHT22;11445;53.816;8.902;2022-10-12T02:19:38;8.30;99.90
22558;DHT22;11445;53.816;8.902;2022-10-12T02:22:07;8.30;99.90
22558;DHT22;11445;53.816;8.902;2022-10-12T02:24:37;8.30;99.90
22558;DHT22;11445;53.816;8.902;2022-10-12T02:27:06;8.30;99.90
22558;DHT22;11445;53.816;8.902;2022-10-12T02:29:37;8.30;99.90
22558;DHT22;11445;53.816;8.902;2022-10-12T02:32:10;8.30;99.90
22558;DHT22;11445;53.816;8.902;2022-10-12T02:34:44;8.30;99.90
22558;DHT22;11445;53.816;8.902;2022-10-12T02:37:20;8.30;99.90
22558;DHT22;11445;53.816;8.902;2022-10-12T02:39:54;8.30;99.90
22558;DHT22;11445;53.816;8.902;2022-10-12T02:42:23;8.30;99.90
22558;DHT22;11445;53.816;8.902;2022-10-12T02:44:53;8.30;99.90
22558;DHT22;11445;53.816;8.902;2022-10-12T02:47:24;8.30;99.90
22558;DHT22;11445;53.816;8.902;2022-10-12T02:49:53;8.30;99.90
22558;DHT22;11445;53.816;8.902;2022-10-12T02:52:22;8.30;99.90
22558;DHT22;11445;53.816;8.902;2022-10-12T02:54:49;8.30;99.90
22558;DHT22;11445;53.816;8.902;2022-10-12T02:57:16;8.30;99.90
22558;DHT22;11445;53.816;8.902;2022-10-12T02:59:43;8.30;99.90
22558;DHT22;11445;53.816;8.902;2022-10-12T03:02:11;8.20;99.90
22558;DHT22;11445;53.816;8.902;2022-10-12T03:04:39;8.30;99.90
22558;DHT22;11445;53.816;8.902;2022-10-12T03:07:06;8.30;99.90
22558;DHT22;11445;53.816;8.902;2022-10-12T03:09:33;8.30;99.90
22558;DHT22;11445;53.816;8.902;2022-10-12T03:12:00;8.30;99.90
22558;DHT22;11445;53.816;8.902;2022-10-12T03:14:27;8.20;99.90
22558;DHT22;11445;53.816;8.902;2022-10-12T03:16:55;8.20;99.90
22558;DHT22;11445;53.816;8.902;2022-10-12T03:19:22;8.20;99.90
22558;DHT22;11445;53.816;8.902;2022-10-12T03:21:51;8.10;99.90
22558;DHT22;11445;53.816;8.902;2022-10-12T03:24:18;8.10;99.90
22558;DHT22;11445;53.816;8.902;2022-10-12T03:26:45;8.10;99.90
22558;DHT22;11445;53.816;8.902;2022-10-12T03:29:12;8.10;99.90
22558;DHT22;11445;53.816;8.902;2022-10-12T03:31:39;8.10;99.90
22558;DHT22;11445;53.816;8.902;2022-10-12T03:34:06;8.10;99.90
22558;DHT22;11445;53.816;8.902;2022-10-12T03:36:33;8.10;99.90
22558;DHT22;11445;53.816;8.902;2022-10-12T03:39:01;8.00;99.90
22558;DHT22;11445;53.816;8.902;2022-10-12T03:41:29;8.00;99.90
22558;DHT22;11445;53.816;8.902;2022-10-12T03:43:55;8.00;99.90
22558;DHT22;11445;53.816;8.902;2022-10-12T03:46:23;7.90;99.90
22558;DHT22;11445;53.816;8.902;2022-10-12T03:48:50;7.90;99.90
22558;DHT22;11445;53.816;8.902;2022-10-12T03:51:17;7.90;99.90
22558;DHT22;11445;53.816;8.902;2022-10-12T03:53:44;7.90;99.90
22558;DHT22;11445;53.816;8.902;2022-10-12T03:56:12;7.90;99.90
22558;DHT22;11445;53.816;8.902;2022-10-12T03:58:39;7.90;99.90
22558;DHT22;11445;53.816;8.902;2022-10-12T04:01:06;7.90;99.90
22558;DHT22;11445;53.816;8.902;2022-10-12T04:03:33;7.90;99.90
22558;DHT22;11445;53.816;8.902;2022-10-12T04:06:01;7.90;99.90
22558;DHT22;11445;53.816;8.902;2022-10-12T04:08:28;7.90;99.90
22558;DHT22;11445;53.816;8.902;2022-10-12T04:10:55;7.90;99.90
22558;DHT22;11445;53.816;8.902;2022-10-12T04:13:24;8.00;99.90
22558;DHT22;11445;53.816;8.902;2022-10-12T04:15:51;7.90;99.90
22558;DHT22;11445;53.816;8.902;2022-10-12T04:18:18;7.90;99.90
22558;DHT22;11445;53.816;8.902;2022-10-12T04:20:47;7.90;99.90
22558;DHT22;11445;53.816;8.902;2022-10-12T04:23:14;7.90;99.90
22558;DHT22;11445;53.816;8.902;2022-10-12T04:25:41;7.90;99.90
22558;DHT22;11445;53.816;8.902;2022-10-12T04:28:08;7.90;99.90
22558;DHT22;11445;53.816;8.902;2022-10-12T04:30:37;7.90;99.90
22558;DHT22;11445;53.816;8.902;2022-10-12T04:33:04;7.90;99.90
22558;DHT22;11445;53.816;8.902;2022-10-12T04:35:31;7.90;99.90
22558;DHT22;11445;53.816;8.902;2022-10-12T04:37:58;7.90;99.90
22558;DHT22;11445;53.816;8.902;2022-10-12T04:40:25;7.90;99.90
22558;DHT22;11445;53.816;8.902;2022-10-12T04:42:52;7.90;99.90
22558;DHT22;11445;53.816;8.902;2022-10-12T04:45:20;7.90;99.90
22558;DHT22;11445;53.816;8.902;2022-10-12T04:47:49;7.90;99.90
22558;DHT22;11445;53.816;8.902;2022-10-12T04:50:16;7.90;99.90
22558;DHT22;11445;53.816;8.902;2022-10-12T04:52:43;7.90;99.90
22558;DHT22;11445;53.816;8.902;2022-10-12T04:55:10;7.90;99.90
22558;DHT22;11445;53.816;8.902;2022-10-12T04:57:37;7.80;99.90
22558;DHT22;11445;53.816;8.902;2022-10-12T05:00:05;7.80;99.90
22558;DHT22;11445;53.816;8.902;2022-10-12T05:02:33;7.80;99.90
22558;DHT22;11445;53.816;8.902;2022-10-12T05:05:01;7.90;99.90
22558;DHT22;11445;53.816;8.902;2022-10-12T05:07:28;8.30;99.90
22558;DHT22;11445;53.816;8.902;2022-10-12T05:09:55;8.40;99.90
22558;DHT22;11445;53.816;8.902;2022-10-12T05:12:22;8.40;99.90
22558;DHT22;11445;53.816;8.902;2022-10-12T05:14:49;8.30;99.90
22558;DHT22;11445;53.816;8.902;2022-10-12T05:17:16;8.20;99.90
22558;DHT22;11445;53.816;8.902;2022-10-12T05:19:43;8.10;99.90
22558;DHT22;11445;53.816;8.902;2022-10-12T05:22:11;8.00;99.90
22558;DHT22;11445;53.816;8.902;2022-10-12T05:24:38;8.00;99.90
22558;DHT22;11445;53.816;8.902;2022-10-12T05:27:05;8.00;99.90
22558;DHT22;11445;53.816;8.902;2022-10-12T05:29:32;7.90;99.90
22558;DHT22;11445;53.816;8.902;2022-10-12T05:31:59;7.90;99.90
22558;DHT22;11445;53.816;8.902;2022-10-12T05:34:26;7.90;99.90
22558;DHT22;11445;53.816;8.902;2022-10-12T05:36:53;7.80;99.90
22558;DHT22;11445;53.816;8.902;2022-10-12T05:39:22;7.80;99.90
22558;DHT22;11445;53.816;8.902;2022-10-12T05:41:49;7.80;99.90
22558;DHT22;11445;53.816;8.902;2022-10-12T05:44:18;7.80;99.90
22558;DHT22;11445;53.816;8.902;2022-10-12T05:46:46;7.70;99.90
22558;DHT22;11445;53.816;8.902;2022-10-12T05:49:13;7.70;99.90
22558;DHT22;11445;53.816;8.902;2022-10-12T05:51:40;7.70;99.90
22558;DHT22;11445;53.816;8.902;2022-10-12T05:54:07;7.70;99.90
22558;DHT22;11445;53.816;8.902;2022-10-12T05:56:36;7.70;99.90
22558;DHT22;11445;53.816;8.902;2022-10-12T05:59:03;7.70;99.90
22558;DHT22;11445;53.816;8.902;2022-10-12T06:01:30;7.80;99.90
22558;DHT22;11445;53.816;8.902;2022-10-12T06:03:57;7.70;99.90
22558;DHT22;11445;53.816;8.902;2022-10-12T06:06:24;7.70;99.90
22558;DHT22;11445;53.816;8.902;2022-10-12T06:08:51;7.60;99.90
22558;DHT22;11445;53.816;8.902;2022-10-12T06:11:18;7.60;99.90
22558;DHT22;11445;53.816;8.902;2022-10-12T06:13:46;7.60;99.90
22558;DHT22;11445;53.816;8.902;2022-10-12T06:16:13;7.70;99.90
22558;DHT22;11445;53.816;8.902;2022-10-12T06:18:40;7.90;99.90
22558;DHT22;11445;53.816;8.902;2022-10-12T06:21:07;8.60;99.90
22558;DHT22;11445;53.816;8.902;2022-10-12T06:23:34;9.20;99.90
22558;DHT22;11445;53.816;8.902;2022-10-12T06:26:01;9.50;99.90
22558;DHT22;11445;53.816;8.902;2022-10-12T06:28:28;9.70;99.90
22558;DHT22;11445;53.816;8.902;2022-10-12T06:30:58;9.70;99.90
22558;DHT22;11445;53.816;8.902;2022-10-12T06:33:26;9.40;99.90
22558;DHT22;11445;53.816;8.902;2022-10-12T06:35:54;9.20;99.90
22558;DHT22;11445;53.816;8.902;2022-10-12T06:38:22;9.00;99.90
22558;DHT22;11445;53.816;8.902;2022-10-12T06:40:49;8.80;99.90
22558;DHT22;11445;53.816;8.902;2022-10-12T06:43:17;8.70;99.90
22558;DHT22;11445;53.816;8.902;2022-10-12T06:45:44;8.60;99.90
22558;DHT22;11445;53.816;8.902;2022-10-12T06:48:13;8.50;99.90
22558;DHT22;11445;53.816;8.902;2022-10-12T06:50:40;8.40;99.90
22558;DHT22;11445;53.816;8.902;2022-10-12T06:53:07;8.40;99.90
22558;DHT22;11445;53.816;8.902;2022-10-12T06:55:34;8.40;99.90
22558;DHT22;11445;53.816;8.902;2022-10-12T06:58:04;8.40;99.90
22558;DHT22;11445;53.816;8.902;2022-10-12T07:00:31;8.40;99.90
22558;DHT22;11445;53.816;8.902;2022-10-12T07:02:58;8.40;99.90
22558;DHT22;11445;53.816;8.902;2022-10-12T07:05:26;8.40;99.90
22558;DHT22;11445;53.816;8.902;2022-10-12T07:07:53;8.40;99.90
22558;DHT22;11445;53.816;8.902;2022-10-12T07:10:20;8.40;99.90
22558;DHT22;11445;53.816;8.902;2022-10-12T07:12:47;8.40;99.90
22558;DHT22;11445;53.816;8.902;2022-10-12T07:15:15;8.40;99.90
22558;DHT22;11445;53.816;8.902;2022-10-12T07:17:42;8.40;99.90
22558;DHT22;11445;53.816;8.902;2022-10-12T07:20:10;8.40;99.90
22558;DHT22;11445;53.816;8.902;2022-10-12T07:22:38;8.50;99.90
22558;DHT22;11445;53.816;8.902;2022-10-12T07:25:06;8.50;99.90
22558;DHT22;11445;53.816;8.902;2022-10-12T07:27:33;8.50;99.90
22558;DHT22;11445;53.816;8.902;2022-10-12T07:30:00;8.50;99.90
22558;DHT22;11445;53.816;8.902;2022-10-12T07:32:27;8.60;99.90
22558;DHT22;11445;53.816;8.902;2022-10-12T07:34:54;8.60;99.90
22558;DHT22;11445;53.816;8.902;2022-10-12T07:37:22;8.70;99.90
22558;DHT22;11445;53.816;8.902;2022-10-12T07:39:50;8.70;99.90
22558;DHT22;11445;53.816;8.902;2022-10-12T07:42:21;8.70;99.90
22558;DHT22;11445;53.816;8.902;2022-10-12T07:44:48;8.80;99.90
22558;DHT22;11445;53.816;8.902;2022-10-12T07:47:15;8.80;99.90
22558;DHT22;11445;53.816;8.902;2022-10-12T07:49:43;8.90;99.90
22558;DHT22;11445;53.816;8.902;2022-10-12T07:52:11;8.90;99.90
22558;DHT22;11445;53.816;8.902;2022-10-12T07:54:38;9.00;99.90
22558;DHT22;11445;53.816;8.902;2022-10-12T07:57:06;9.00;99.90
22558;DHT22;11445;53.816;8.902;2022-10-12T07:59:33;9.10;99.90
22558;DHT22;11445;53.816;8.902;2022-10-12T08:02:00;9.10;99.90
22558;DHT22;11445;53.816;8.902;2022-10-12T08:04:27;9.20;99.90
22558;DHT22;11445;53.816;8.902;2022-10-12T08:06:54;9.20;99.90
22558;DHT22;11445;53.816;8.902;2022-10-12T08:09:22;9.30;99.90
22558;DHT22;11445;53.816;8.902;2022-10-12T08:11:49;9.40;99.90
22558;DHT22;11445;53.816;8.902;2022-10-12T08:14:18;9.40;99.90
22558;DHT22;11445;53.816;8.902;2022-10-12T08:16:45;9.50;99.90
22558;DHT22;11445;53.816;8.902;2022-10-12T08:19:12;9.50;99.90
22558;DHT22;11445;53.816;8.902;2022-10-12T08:21:40;9.50;99.90
22558;DHT22;11445;53.816;8.902;2022-10-12T08:24:07;9.50;99.90
22558;DHT22;11445;53.816;8.902;2022-10-12T08:26:34;9.60;99.90
22558;DHT22;11445;53.816;8.902;2022-10-12T08:29:02;9.60;99.90
22558;DHT22;11445;53.816;8.902;2022-10-12T08:31:31;9.70;99.90
22558;DHT22;11445;53.816;8.902;2022-10-12T08:33:59;9.80;99.90
22558;DHT22;11445;53.816;8.902;2022-10-12T08:36:26;9.80;99.90
22558;DHT22;11445;53.816;8.902;2022-10-12T08:38:54;9.90;99.90
22558;DHT22;11445;53.816;8.902;2022-10-12T08:41:28;10.00;99.90
22558;DHT22;11445;53.816;8.902;2022-10-12T08:47:07;10.10;99.90
22558;DHT22;11445;53.816;8.902;2022-10-12T08:49:36;10.10;99.90
22558;DHT22;11445;53.816;8.902;2022-10-12T08:52:14;10.20;99.90
22558;DHT22;11445;53.816;8.902;2022-10-12T08:54:44;10.20;99.90
22558;DHT22;11445;53.816;8.902;2022-10-12T08:57:14;10.30;99.90
22558;DHT22;11445;53.816;8.902;2022-10-12T08:59:42;10.30;99.90
22558;DHT22;11445;53.816;8.902;2022-10-12T09:02:25;10.40;99.90
22558;DHT22;11445;53.816;8.902;2022-10-12T09:04:59;10.50;99.90
22558;DHT22;11445;53.816;8.902;2022-10-12T09:07:29;10.50;99.90
22558;DHT22;11445;53.816;8.902;2022-10-12T09:10:06;10.60;99.90
22558;DHT22;11445;53.816;8.902;2022-10-12T09:12:45;10.70;99.90
22558;DHT22;11445;53.816;8.902;2022-10-12T09:15:20;10.70;99.90
22558;DHT22;11445;53.816;8.902;2022-10-12T09:17:52;10.80;99.90
22558;DHT22;11445;53.816;8.902;2022-10-12T09:20:21;10.90;99.90
22558;DHT22;11445;53.816;8.902;2022-10-12T09:22:50;10.90;99.90
22558;DHT22;11445;53.816;8.902;2022-10-12T09:25:25;11.00;99.90
22558;DHT22;11445;53.816;8.902;2022-10-12T09:27:53;11.10;99.90
22558;DHT22;11445;53.816;8.902;2022-10-12T09:30:22;11.10;99.90
22558;DHT22;11445;53.816;8.902;2022-10-12T09:33:06;11.20;99.90
22558;DHT22;11445;53.816;8.902;2022-10-12T09:35:37;11.20;99.90
22558;DHT22;11445;53.816;8.902;2022-10-12T09:38:05;11.30;99.90
22558;DHT22;11445;53.816;8.902;2022-10-12T09:40:33;11.40;99.90
22558;DHT22;11445;53.816;8.902;2022-10-12T09:43:02;11.40;99.90
22558;DHT22;11445;53.816;8.902;2022-10-12T09:45:31;11.50;99.90
22558;DHT22;11445;53.816;8.902;2022-10-12T09:48:14;11.50;99.90
22558;DHT22;11445;53.816;8.902;2022-10-12T09:50:45;11.60;99.90
22558;DHT22;11445;53.816;8.902;2022-10-12T09:53:24;11.70;99.90
22558;DHT22;11445;53.816;8.902;2022-10-12T09:55:57;11.80;99.90
22558;DHT22;11445;53.816;8.902;2022-10-12T09:58:26;11.80;99.90
22558;DHT22;11445;53.816;8.902;2022-10-12T10:01:15;11.90;99.90
22558;DHT22;11445;53.816;8.902;2022-10-12T10:03:46;12.00;99.90
22558;DHT22;11445;53.816;8.902;2022-10-12T10:06:13;12.00;99.90
22558;DHT22;11445;53.816;8.902;2022-10-12T10:08:42;12.10;99.90
22558;DHT22;11445;53.816;8.902;2022-10-12T10:11:14;12.10;99.90
22558;DHT22;11445;53.816;8.902;2022-10-12T10:13:49;12.20;99.90
22558;DHT22;11445;53.816;8.902;2022-10-12T10:16:18;12.30;99.90
22558;DHT22;11445;53.816;8.902;2022-10-12T10:18:48;12.30;99.90
22558;DHT22;11445;53.816;8.902;2022-10-12T10:21:24;12.40;99.90
22558;DHT22;11445;53.816;8.902;2022-10-12T10:23:54;12.40;99.90
22558;DHT22;11445;53.816;8.902;2022-10-12T10:26:22;12.50;99.90
22558;DHT22;11445;53.816;8.902;2022-10-12T10:28:54;12.50;99.90
22558;DHT22;11445;53.816;8.902;2022-10-12T10:31:24;12.60;99.90
22558;DHT22;11445;53.816;8.902;2022-10-12T10:34:10;12.70;99.90
22558;DHT22;11445;53.816;8.902;2022-10-12T10:36:39;12.80;99.90
22558;DHT22;11445;53.816;8.902;2022-10-12T10:39:16;12.80;99.90
22558;DHT22;11445;53.816;8.902;2022-10-12T10:41:44;12.90;99.90
22558;DHT22;11445;53.816;8.902;2022-10-12T10:44:30;12.90;99.90
22558;DHT22;11445;53.816;8.902;2022-10-12T10:47:00;12.90;99.90
22558;DHT22;11445;53.816;8.902;2022-10-12T10:49:35;13.00;99.90
22558;DHT22;11445;53.816;8.902;2022-10-12T10:52:05;13.00;99.90
22558;DHT22;11445;53.816;8.902;2022-10-12T10:54:34;13.10;99.90
22558;DHT22;11445;53.816;8.902;2022-10-12T10:57:08;13.20;99.90
22558;DHT22;11445;53.816;8.902;2022-10-12T10:59:44;13.20;99.90
22558;DHT22;11445;53.816;8.902;2022-10-12T11:02:36;13.20;99.90
22558;DHT22;11445;53.816;8.902;2022-10-12T11:05:11;13.30;99.90
22558;DHT22;11445;53.816;8.902;2022-10-12T11:07:43;13.30;99.90
22558;DHT22;11445;53.816;8.902;2022-10-12T11:10:20;13.30;99.90
22558;DHT22;11445;53.816;8.902;2022-10-12T11:12:52;13.30;99.90
22558;DHT22;11445;53.816;8.902;2022-10-12T11:15:24;13.40;99.90
22558;DHT22;11445;53.816;8.902;2022-10-12T11:17:57;13.40;99.90
22558;DHT22;11445;53.816;8.902;2022-10-12T11:20:44;13.50;99.90
22558;DHT22;11445;53.816;8.902;2022-10-12T11:23:31;13.60;99.90
22558;DHT22;11445;53.816;8.902;2022-10-12T11:26:09;13.60;99.90
22558;DHT22;11445;53.816;8.902;2022-10-12T11:28:37;13.70;99.90
22558;DHT22;11445;53.816;8.902;2022-10-12T11:31:10;13.70;99.90
22558;DHT22;11445;53.816;8.902;2022-10-12T11:33:41;13.70;99.90
22558;DHT22;11445;53.816;8.902;2022-10-12T11:36:13;13.80;99.90
22558;DHT22;11445;53.816;8.902;2022-10-12T11:38:44;13.90;99.90
22558;DHT22;11445;53.816;8.902;2022-10-12T11:41:14;13.90;99.90
22558;DHT22;11445;53.816;8.902;2022-10-12T11:43:46;14.00;99.90
22558;DHT22;11445;53.816;8.902;2022-10-12T11:46:17;14.00;99.90
22558;DHT22;11445;53.816;8.902;2022-10-12T11:48:51;14.00;99.90
22558;DHT22;11445;53.816;8.902;2022-10-12T11:51:19;14.00;99.90
22558;DHT22;11445;53.816;8.902;2022-10-12T11:53:53;14.00;99.90
22558;DHT22;11445;53.816;8.902;2022-10-12T11:56:24;14.00;99.90
22558;DHT22;11445;53.816;8.902;2022-10-12T11:58:56;14.10;99.90
22558;DHT22;11445;53.816;8.902;2022-10-12T12:01:36;14.10;99.90
22558;DHT22;11445;53.816;8.902;2022-10-12T12:04:21;14.10;99.90
22558;DHT22;11445;53.816;8.902;2022-10-12T12:07:00;14.20;99.90
22558;DHT22;11445;53.816;8.902;2022-10-12T12:09:36;14.20;99.90
22558;DHT22;11445;53.816;8.902;2022-10-12T12:12:21;14.20;99.90
22558;DHT22;11445;53.816;8.902;2022-10-12T12:15:20;14.20;99.90
22558;DHT22;11445;53.816;8.902;2022-10-12T12:18:09;14.20;99.90
22558;DHT22;11445;53.816;8.902;2022-10-12T12:21:02;14.20;99.90
22558;DHT22;11445;53.816;8.902;2022-10-12T12:23:37;14.20;99.90
22558;DHT22;11445;53.816;8.902;2022-10-12T12:26:13;14.30;99.90
22558;DHT22;11445;53.816;8.902;2022-10-12T12:28:42;14.30;99.90
22558;DHT22;11445;53.816;8.902;2022-10-12T12:31:14;14.40;99.90
22558;DHT22;11445;53.816;8.902;2022-10-12T12:33:43;14.40;99.90
22558;DHT22;11445;53.816;8.902;2022-10-12T12:36:14;14.40;99.90
22558;DHT22;11445;53.816;8.902;2022-10-12T12:38:49;14.40;99.90
22558;DHT22;11445;53.816;8.902;2022-10-12T12:41:17;14.40;99.90
22558;DHT22;11445;53.816;8.902;2022-10-12T12:44:00;14.40;99.90
22558;DHT22;11445;53.816;8.902;2022-10-12T12:49:45;14.50;99.90
22558;DHT22;11445;53.816;8.902;2022-10-12T12:52:21;14.60;99.90
22558;DHT22;11445;53.816;8.902;2022-10-12T12:55:20;14.60;99.90
22558;DHT22;11445;53.816;8.902;2022-10-12T13:01:12;14.70;99.90
22558;DHT22;11445;53.816;8.902;2022-10-12T13:10:06;14.60;99.90
22558;DHT22;11445;53.816;8.902;2022-10-12T13:12:51;14.60;99.90
22558;DHT22;11445;53.816;8.902;2022-10-12T13:15:39;14.60;99.90
22558;DHT22;11445;53.816;8.902;2022-10-12T13:18:47;14.60;99.90
22558;DHT22;11445;53.816;8.902;2022-10-12T13:21:18;14.60;99.90
22558;DHT22;11445;53.816;8.902;2022-10-12T13:23:48;14.70;99.90
22558;DHT22;11445;53.816;8.902;2022-10-12T13:26:21;14.70;99.90
22558;DHT22;11445;53.816;8.902;2022-10-12T13:28:49;14.70;99.90
22558;DHT22;11445;53.816;8.902;2022-10-12T13:31:22;14.70;99.90
22558;DHT22;11445;53.816;8.902;2022-10-12T13:33:58;14.70;99.90
22558;DHT22;11445;53.816;8.902;2022-10-12T13:36:28;14.80;99.90
22558;DHT22;11445;53.816;8.902;2022-10-12T13:38:57;14.80;99.90
22558;DHT22;11445;53.816;8.902;2022-10-12T13:41:26;15.00;99.90
22558;DHT22;11445;53.816;8.902;2022-10-12T13:43:57;15.00;99.90
22558;DHT22;11445;53.816;8.902;2022-10-12T13:46:36;15.10;99.90
22558;DHT22;11445;53.816;8.902;2022-10-12T13:49:12;15.10;99.90
22558;DHT22;11445;53.816;8.902;2022-10-12T13:51:41;15.10;99.90
22558;DHT22;11445;53.816;8.902;2022-10-12T13:54:16;15.10;99.90
22558;DHT22;11445;53.816;8.902;2022-10-12T13:56:45;15.10;99.90
22558;DHT22;11445;53.816;8.902;2022-10-12T13:59:16;15.10;99.90
22558;DHT22;11445;53.816;8.902;2022-10-12T14:01:49;15.10;99.90
22558;DHT22;11445;53.816;8.902;2022-10-12T14:04:17;15.10;99.90
22558;DHT22;11445;53.816;8.902;2022-10-12T14:06:53;15.20;99.90
22558;DHT22;11445;53.816;8.902;2022-10-12T14:09:22;15.20;99.90
22558;DHT22;11445;53.816;8.902;2022-10-12T14:11:52;15.10;99.90
22558;DHT22;11445;53.816;8.902;2022-10-12T14:14:27;15.20;99.90
22558;DHT22;11445;53.816;8.902;2022-10-12T14:16:56;15.20;99.90
22558;DHT22;11445;53.816;8.902;2022-10-12T14:19:32;15.20;99.90
22558;DHT22;11445;53.816;8.902;2022-10-12T14:22:00;15.30;99.90
22558;DHT22;11445;53.816;8.902;2022-10-12T14:24:28;15.20;99.90
22558;DHT22;11445;53.816;8.902;2022-10-12T14:26:59;15.20;99.90
22558;DHT22;11445;53.816;8.902;2022-10-12T14:29:41;15.20;99.90
22558;DHT22;11445;53.816;8.902;2022-10-12T14:32:38;15.20;99.90
22558;DHT22;11445;53.816;8.902;2022-10-12T14:35:12;15.10;99.90
22558;DHT22;11445;53.816;8.902;2022-10-12T14:37:39;15.10;99.90
22558;DHT22;11445;53.816;8.902;2022-10-12T14:40:33;15.10;99.90
22558;DHT22;11445;53.816;8.902;2022-10-12T14:43:04;15.10;99.90
22558;DHT22;11445;53.816;8.902;2022-10-12T14:45:33;15.10;99.90
22558;DHT22;11445;53.816;8.902;2022-10-12T14:48:01;15.00;99.90
22558;DHT22;11445;53.816;8.902;2022-10-12T14:50:30;15.00;99.90
22558;DHT22;11445;53.816;8.902;2022-10-12T14:53:00;15.00;99.90
22558;DHT22;11445;53.816;8.902;2022-10-12T14:55:30;14.90;99.90
22558;DHT22;11445;53.816;8.902;2022-10-12T14:57:57;14.90;99.90
22558;DHT22;11445;53.816;8.902;2022-10-12T15:00:28;14.80;99.90
22558;DHT22;11445;53.816;8.902;2022-10-12T15:02:55;14.80;99.90
22558;DHT22;11445;53.816;8.902;2022-10-12T15:05:25;14.80;99.90
22558;DHT22;11445;53.816;8.902;2022-10-12T15:07:53;14.80;99.90
22558;DHT22;11445;53.816;8.902;2022-10-12T15:10:21;14.70;99.90
22558;DHT22;11445;53.816;8.902;2022-10-12T15:12:49;14.70;99.90
22558;DHT22;11445;53.816;8.902;2022-10-12T15:15:31;14.70;99.90
22558;DHT22;11445;53.816;8.902;2022-10-12T15:18:00;14.60;99.90
22558;DHT22;11445;53.816;8.902;2022-10-12T15:20:29;14.60;99.90
22558;DHT22;11445;53.816;8.902;2022-10-12T15:22:57;14.60;99.90
22558;DHT22;11445;53.816;8.902;2022-10-12T15:25:27;14.50;99.90
22558;DHT22;11445;53.816;8.902;2022-10-12T15:27:57;14.50;99.90
22558;DHT22;11445;53.816;8.902;2022-10-12T15:30:24;14.50;99.90
22558;DHT22;11445;53.816;8.902;2022-10-12T15:32:52;14.40;99.90
22558;DHT22;11445;53.816;8.902;2022-10-12T15:35:22;14.40;99.90
22558;DHT22;11445;53.816;8.902;2022-10-12T15:37:49;14.30;99.90
22558;DHT22;11445;53.816;8.902;2022-10-12T15:40:18;14.30;99.90
22558;DHT22;11445;53.816;8.902;2022-10-12T15:42:45;14.30;99.90
22558;DHT22;11445;53.816;8.902;2022-10-12T15:45:19;14.20;99.90
22558;DHT22;11445;53.816;8.902;2022-10-12T15:47:47;14.20;99.90
22558;DHT22;11445;53.816;8.902;2022-10-12T15:50:18;14.20;99.90
22558;DHT22;11445;53.816;8.902;2022-10-12T15:52:45;14.10;99.90
22558;DHT22;11445;53.816;8.902;2022-10-12T15:55:18;14.00;99.90
22558;DHT22;11445;53.816;8.902;2022-10-12T15:57:45;14.00;99.90
22558;DHT22;11445;53.816;8.902;2022-10-12T16:00:14;14.00;99.90
22558;DHT22;11445;53.816;8.902;2022-10-12T16:02:42;13.90;99.90
22558;DHT22;11445;53.816;8.902;2022-10-12T16:05:21;13.90;99.90
22558;DHT22;11445;53.816;8.902;2022-10-12T16:07:49;13.80;99.90
22558;DHT22;11445;53.816;8.902;2022-10-12T16:10:17;13.70;99.90
22558;DHT22;11445;53.816;8.902;2022-10-12T16:12:46;13.70;99.90
22558;DHT22;11445;53.816;8.902;2022-10-12T16:15:15;13.60;99.90
22558;DHT22;11445;53.816;8.902;2022-10-12T16:17:42;13.50;99.90
22558;DHT22;11445;53.816;8.902;2022-10-12T16:20:10;13.50;99.90
22558;DHT22;11445;53.816;8.902;2022-10-12T16:22:39;13.60;99.90